Terminal Aerodrome Forecast
Issued by NWS Raleigh/Durham, NC

Home | Current Version | Previous Version | Text Only | Print | Product List | Glossary On
Versions: 1 2 3 4 5 6 7 8 9 10 11 12 13 14 15 16 17 18 19 20 21
000
FTUS42 KRAH 270232 AAA
TAFGSO
TAF AMD
KGSO 270232Z 2703/2724 21007KT 6SM -RA BR BKN004 OVC100
     FM270600 22003KT 4SM -SHRA BR OVC007
     FM271500 VRB03KT P6SM VCSH OVC015
     FM271800 27004KT P6SM VCSH BKN050=

USA.gov is the U.S. government's official web portal to all federal, state and local government web resources and services.